Terminal Aerodrome Forecast
Issued by NWS

Current Version | Previous Version | Text Only | Print | Product List | Glossary On
Versions: 1 2 3 4 5 6 7 8 9 10 11 12 13 14 15 16 17 18 19 20 21 22 23 24 25 26 27 28
084
FTUS41 KILN 300815 AAB
TAFLUK
TAF AMD
KLUK 300815Z 3008/0106 12003KT 6SM BR SCT120 BKN250
     FM300900 17008KT P6SM SCT250 WS020/20035KT
     FM301200 18009KT P6SM BKN250
     FM301400 19012G17KT P6SM SCT120 BKN250
     FM302300 18012KT P6SM VCSH BKN110=

USA.gov is the U.S. government's official web portal to all federal, state and local government web resources and services.